Terminal Aerodrome Forecast
Issued by NWS

Home | Current Version | Previous Version | Text Only | Print | Product List | Glossary On
Versions: 1 2 3 4 5 6 7 8 9 10 11 12 13 14 15 16 17 18 19 20
000
FTUS45 KBOU 261733
TAFAPA
TAF
KAPA 261733Z 2618/2718 VRB06KT P6SM FEW030 SCT100
     FM262100 35009KT P6SM VCTS SCT060CB SCT120
     FM270200 15010KT P6SM SCT080 BKN150
      TEMPO 2704/2706 18012G24KT
     FM270600 21009KT P6SM SCT100 BKN180
     FM271500 27006KT P6SM SCT120 BKN220=

USA.gov is the U.S. government's official web portal to all federal, state and local government web resources and services.